sensor_id;sensor_type;location;lat;lon;timestamp;pressure;altitude;pressure_sealevel;temperature;humidity
72587;BME280;60621;49.576;11.024;2023-05-29T00:00:31;98458.03;;;16.34;51.85
72587;BME280;60621;49.576;11.024;2023-05-29T00:01:34;98458.75;;;16.38;51.84
72587;BME280;60621;49.576;11.024;2023-05-29T00:02:37;98453.50;;;16.24;51.69
72587;BME280;60621;49.576;11.024;2023-05-29T00:03:38;98458.84;;;16.24;52.15
72587;BME280;60621;49.576;11.024;2023-05-29T00:04:40;98458.03;;;16.34;51.98
72587;BME280;60621;49.576;11.024;2023-05-29T00:05:42;98461.78;;;16.41;51.66
72587;BME280;60621;49.576;11.024;2023-05-29T00:06:44;98455.25;;;16.52;51.72
72587;BME280;60621;49.576;11.024;2023-05-29T00:07:45;98459.06;;;16.51;51.61
72587;BME280;60621;49.576;11.024;2023-05-29T00:08:47;98456.38;;;16.58;51.09
72587;BME280;60621;49.576;11.024;2023-05-29T00:09:49;98463.53;;;16.65;50.38
72587;BME280;60621;49.576;11.024;2023-05-29T00:10:50;98462.75;;;16.68;50.12
72587;BME280;60621;49.576;11.024;2023-05-29T00:11:52;98464.69;;;16.68;50.04
72587;BME280;60621;49.576;11.024;2023-05-29T00:12:54;98460.53;;;16.59;50.38
72587;BME280;60621;49.576;11.024;2023-05-29T00:13:57;98466.19;;;16.65;50.30
72587;BME280;60621;49.576;11.024;2023-05-29T00:14:59;98463.94;;;16.60;50.23
72587;BME280;60621;49.576;11.024;2023-05-29T00:16:01;98465.06;;;16.66;50.35
72587;BME280;60621;49.576;11.024;2023-05-29T00:17:05;98470.84;;;16.54;50.28
72587;BME280;60621;49.576;11.024;2023-05-29T00:18:07;98471.63;;;16.47;50.58
72587;BME280;60621;49.576;11.024;2023-05-29T00:19:09;98465.91;;;16.52;50.62
72587;BME280;60621;49.576;11.024;2023-05-29T00:20:11;98462.81;;;16.61;50.61
72587;BME280;60621;49.576;11.024;2023-05-29T00:21:15;98461.69;;;16.58;50.55
72587;BME280;60621;49.576;11.024;2023-05-29T00:22:17;98467.00;;;16.58;50.42
72587;BME280;60621;49.576;11.024;2023-05-29T00:23:19;98461.72;;;16.51;50.63
72587;BME280;60621;49.576;11.024;2023-05-29T00:24:20;98464.03;;;16.46;50.81
72587;BME280;60621;49.576;11.024;2023-05-29T00:25:22;98462.53;;;16.45;50.96
72587;BME280;60621;49.576;11.024;2023-05-29T00:26:23;98462.25;;;16.21;51.70
72587;BME280;60621;49.576;11.024;2023-05-29T00:27:29;98461.63;;;15.85;52.10
72587;BME280;60621;49.576;11.024;2023-05-29T00:28:30;98460.91;;;15.74;52.49
72587;BME280;60621;49.576;11.024;2023-05-29T00:29:32;98461.31;;;15.65;52.50
72587;BME280;60621;49.576;11.024;2023-05-29T00:30:34;98456.75;;;15.62;53.02
72587;BME280;60621;49.576;11.024;2023-05-29T00:31:35;98454.84;;;15.55;52.98
72587;BME280;60621;49.576;11.024;2023-05-29T00:32:38;98456.38;;;15.53;53.08
72587;BME280;60621;49.576;11.024;2023-05-29T00:33:40;98452.97;;;15.45;53.22
72587;BME280;60621;49.576;11.024;2023-05-29T00:34:41;98457.16;;;15.39;52.92
72587;BME280;60621;49.576;11.024;2023-05-29T00:35:43;98452.22;;;15.27;53.14
72587;BME280;60621;49.576;11.024;2023-05-29T00:36:44;98453.75;;;15.21;53.25
72587;BME280;60621;49.576;11.024;2023-05-29T00:37:46;98450.31;;;15.13;53.33
72587;BME280;60621;49.576;11.024;2023-05-29T00:38:48;98449.56;;;15.13;53.41
72587;BME280;60621;49.576;11.024;2023-05-29T00:39:49;98454.13;;;15.08;53.74
72587;BME280;60621;49.576;11.024;2023-05-29T00:40:51;98447.69;;;15.06;53.85
72587;BME280;60621;49.576;11.024;2023-05-29T00:41:52;98448.06;;;15.08;53.99
72587;BME280;60621;49.576;11.024;2023-05-29T00:42:54;98447.69;;;15.02;54.08
72587;BME280;60621;49.576;11.024;2023-05-29T00:43:55;98452.22;;;14.95;54.24
72587;BME280;60621;49.576;11.024;2023-05-29T00:44:57;98446.56;;;14.96;54.41
72587;BME280;60621;49.576;11.024;2023-05-29T00:45:59;98452.59;;;14.90;54.17
72587;BME280;60621;49.576;11.024;2023-05-29T00:47:01;98449.19;;;14.89;54.41
72587;BME280;60621;49.576;11.024;2023-05-29T00:48:03;98452.22;;;14.98;54.37
72587;BME280;60621;49.576;11.024;2023-05-29T00:49:05;98452.25;;;15.02;54.34
72587;BME280;60621;49.576;11.024;2023-05-29T00:50:09;98449.19;;;15.00;53.90
72587;BME280;60621;49.576;11.024;2023-05-29T00:51:13;98452.63;;;15.11;54.21
72587;BME280;60621;49.576;11.024;2023-05-29T00:52:17;98458.69;;;15.11;53.73
72587;BME280;60621;49.576;11.024;2023-05-29T00:53:19;98454.13;;;15.16;54.12
72587;BME280;60621;49.576;11.024;2023-05-29T00:54:24;98457.56;;;15.16;53.89
72587;BME280;60621;49.576;11.024;2023-05-29T00:55:29;98458.69;;;15.15;53.95
72587;BME280;60621;49.576;11.024;2023-05-29T00:56:31;98460.19;;;15.09;54.32
72587;BME280;60621;49.576;11.024;2023-05-29T00:57:33;98460.97;;;15.20;54.21
72587;BME280;60621;49.576;11.024;2023-05-29T00:58:35;98466.28;;;15.20;54.15
72587;BME280;60621;49.576;11.024;2023-05-29T00:59:38;98464.38;;;15.03;54.48
72587;BME280;60621;49.576;11.024;2023-05-29T01:00:40;98459.06;;;15.31;54.28
72587;BME280;60621;49.576;11.024;2023-05-29T01:01:42;98465.50;;;15.30;53.94
72587;BME280;60621;49.576;11.024;2023-05-29T01:02:44;98459.81;;;15.35;53.85
72587;BME280;60621;49.576;11.024;2023-05-29T01:03:47;98464.00;;;15.44;53.87
72587;BME280;60621;49.576;11.024;2023-05-29T01:04:50;98460.59;;;15.29;53.78
72587;BME280;60621;49.576;11.024;2023-05-29T01:05:55;98464.00;;;15.11;53.76
72587;BME280;60621;49.576;11.024;2023-05-29T01:07:00;98458.69;;;14.97;54.10
72587;BME280;60621;49.576;11.024;2023-05-29T01:08:03;98460.94;;;14.77;55.04
72587;BME280;60621;49.576;11.024;2023-05-29T01:09:05;98460.91;;;14.59;55.06
72587;BME280;60621;49.576;11.024;2023-05-29T01:10:07;98462.81;;;14.70;55.22
72587;BME280;60621;49.576;11.024;2023-05-29T01:13:11;98456.00;;;14.58;55.12
72587;BME280;60621;49.576;11.024;2023-05-29T01:14:07;98459.38;;;14.51;55.09
72587;BME280;60621;49.576;11.024;2023-05-29T01:16:35;98464.38;;;14.89;54.41
72587;BME280;60621;49.576;11.024;2023-05-29T01:17:41;98459.44;;;14.83;54.63
72587;BME280;60621;49.576;11.024;2023-05-29T01:18:55;98463.97;;;14.76;54.69
72587;BME280;60621;49.576;11.024;2023-05-29T01:20:02;98462.09;;;14.73;54.68
72587;BME280;60621;49.576;11.024;2023-05-29T01:24:08;98463.19;;;14.54;55.47
72587;BME280;60621;49.576;11.024;2023-05-29T01:25:33;98460.56;;;14.72;55.10
72587;BME280;60621;49.576;11.024;2023-05-29T01:26:47;98462.84;;;14.95;54.62
72587;BME280;60621;49.576;11.024;2023-05-29T01:27:50;98463.97;;;14.90;54.31
72587;BME280;60621;49.576;11.024;2023-05-29T01:28:56;98467.41;;;14.83;54.77
72587;BME280;60621;49.576;11.024;2023-05-29T01:30:00;98462.09;;;14.91;54.50
72587;BME280;60621;49.576;11.024;2023-05-29T01:31:05;98460.97;;;15.02;54.40
72587;BME280;60621;49.576;11.024;2023-05-29T01:32:07;98464.00;;;15.11;53.90
72587;BME280;60621;49.576;11.024;2023-05-29T01:33:09;98467.78;;;15.18;53.56
72587;BME280;60621;49.576;11.024;2023-05-29T01:34:11;98462.13;;;15.19;53.36
72587;BME280;60621;49.576;11.024;2023-05-29T01:35:12;98470.06;;;14.98;54.12
72587;BME280;60621;49.576;11.024;2023-05-29T01:36:14;98466.28;;;14.92;54.39
72587;BME280;60621;49.576;11.024;2023-05-29T01:37:16;98470.84;;;15.05;54.28
72587;BME280;60621;49.576;11.024;2023-05-29T01:38:18;98467.78;;;15.14;54.06
72587;BME280;60621;49.576;11.024;2023-05-29T01:39:19;98465.50;;;15.13;53.60
72587;BME280;60621;49.576;11.024;2023-05-29T01:40:22;98464.00;;;14.97;54.20
72587;BME280;60621;49.576;11.024;2023-05-29T01:41:25;98459.44;;;14.73;54.65
72587;BME280;60621;49.576;11.024;2023-05-29T01:42:28;98464.75;;;14.73;55.20
72587;BME280;60621;49.576;11.024;2023-05-29T01:43:30;98466.19;;;14.52;55.16
72587;BME280;60621;49.576;11.024;2023-05-29T01:44:32;98465.69;;;14.18;55.86
72587;BME280;60621;49.576;11.024;2023-05-29T01:45:35;98458.06;;;14.02;57.04
72587;BME280;60621;49.576;11.024;2023-05-29T01:46:38;98457.69;;;14.07;56.86
72587;BME280;60621;49.576;11.024;2023-05-29T01:47:40;98458.81;;;13.96;56.99
72587;BME280;60621;49.576;11.024;2023-05-29T01:48:42;98468.63;;;13.92;57.26
72587;BME280;60621;49.576;11.024;2023-05-29T01:49:44;98457.59;;;13.86;57.17
72587;BME280;60621;49.576;11.024;2023-05-29T01:50:48;98458.84;;;14.10;57.16
72587;BME280;60621;49.576;11.024;2023-05-29T01:51:50;98465.31;;;14.13;56.49
72587;BME280;60621;49.576;11.024;2023-05-29T01:52:52;98450.47;;;13.97;56.82
72587;BME280;60621;49.576;11.024;2023-05-29T01:53:54;98453.88;;;14.05;56.91
72587;BME280;60621;49.576;11.024;2023-05-29T01:54:55;98450.50;;;14.01;57.06
72587;BME280;60621;49.576;11.024;2023-05-29T01:55:57;98456.16;;;14.03;56.70
72587;BME280;60621;49.576;11.024;2023-05-29T01:57:00;98445.59;;;14.10;56.95
72587;BME280;60621;49.576;11.024;2023-05-29T01:58:03;98451.25;;;14.05;56.81
72587;BME280;60621;49.576;11.024;2023-05-29T01:59:06;98444.81;;;14.09;57.13
72587;BME280;60621;49.576;11.024;2023-05-29T02:00:08;98448.63;;;14.12;56.74
72587;BME280;60621;49.576;11.024;2023-05-29T02:01:10;98441.75;;;14.00;57.09
72587;BME280;60621;49.576;11.024;2023-05-29T02:02:13;98450.09;;;14.02;57.02
72587;BME280;60621;49.576;11.024;2023-05-29T02:03:14;98447.09;;;14.07;57.20
72587;BME280;60621;49.576;11.024;2023-05-29T02:04:16;98452.31;;;13.90;57.21
72587;BME280;60621;49.576;11.024;2023-05-29T02:05:17;98456.91;;;13.96;57.35
72587;BME280;60621;49.576;11.024;2023-05-29T02:06:19;98455.31;;;13.84;57.61
72587;BME280;60621;49.576;11.024;2023-05-29T02:07:22;98450.06;;;13.92;57.41
72587;BME280;60621;49.576;11.024;2023-05-29T02:08:23;98453.47;;;13.92;57.41
72587;BME280;60621;49.576;11.024;2023-05-29T02:09:25;98456.47;;;13.87;57.46
72587;BME280;60621;49.576;11.024;2023-05-29T02:10:27;98454.22;;;13.93;57.00
72587;BME280;60621;49.576;11.024;2023-05-29T02:11:28;98451.88;;;13.80;56.71
72587;BME280;60621;49.576;11.024;2023-05-29T02:12:30;98454.88;;;13.68;57.84
72587;BME280;60621;49.576;11.024;2023-05-29T02:13:32;98448.47;;;13.80;57.49
72587;BME280;60621;49.576;11.024;2023-05-29T02:14:33;98454.06;;;13.61;57.81
72587;BME280;60621;49.576;11.024;2023-05-29T02:15:35;98454.47;;;13.66;58.24
72587;BME280;60621;49.576;11.024;2023-05-29T02:16:37;98451.53;;;13.82;57.60
72587;BME280;60621;49.576;11.024;2023-05-29T02:17:38;98453.00;;;13.76;57.52
72587;BME280;60621;49.576;11.024;2023-05-29T02:18:40;98455.94;;;13.56;58.27
72587;BME280;60621;49.576;11.024;2023-05-29T02:19:42;98447.47;;;13.37;58.53
72587;BME280;60621;49.576;11.024;2023-05-29T02:20:44;98444.19;;;13.54;58.86
72587;BME280;60621;49.576;11.024;2023-05-29T02:21:47;98449.91;;;13.63;58.11
72587;BME280;60621;49.576;11.024;2023-05-29T02:22:50;98444.09;;;13.43;58.71
72587;BME280;60621;49.576;11.024;2023-05-29T02:23:53;98436.94;;;13.47;59.02
72587;BME280;60621;49.576;11.024;2023-05-29T02:24:55;98441.63;;;13.75;58.24
72587;BME280;60621;49.576;11.024;2023-05-29T02:25:57;98435.28;;;13.87;57.63
72587;BME280;60621;49.576;11.024;2023-05-29T02:26:59;98442.53;;;14.04;57.32
72587;BME280;60621;49.576;11.024;2023-05-29T02:28:00;98437.25;;;14.12;57.03
72587;BME280;60621;49.576;11.024;2023-05-29T02:29:02;98437.59;;;14.03;56.92
72587;BME280;60621;49.576;11.024;2023-05-29T02:30:07;98440.16;;;13.78;56.78
72587;BME280;60621;49.576;11.024;2023-05-29T02:31:09;98434.72;;;13.56;57.89
72587;BME280;60621;49.576;11.024;2023-05-29T02:32:11;98438.44;;;13.45;58.04
72587;BME280;60621;49.576;11.024;2023-05-29T02:33:13;98438.81;;;13.43;58.54
72587;BME280;60621;49.576;11.024;2023-05-29T02:34:15;98431.56;;;13.37;58.98
72587;BME280;60621;49.576;11.024;2023-05-29T02:35:16;98430.78;;;13.32;59.15
72587;BME280;60621;49.576;11.024;2023-05-29T02:36:19;98434.22;;;13.37;58.97
72587;BME280;60621;49.576;11.024;2023-05-29T02:37:21;98437.22;;;13.31;58.82
72587;BME280;60621;49.576;11.024;2023-05-29T02:38:26;98435.66;;;13.23;58.94
72587;BME280;60621;49.576;11.024;2023-05-29T02:39:28;98427.22;;;13.11;59.18
72587;BME280;60621;49.576;11.024;2023-05-29T02:40:29;98431.56;;;13.33;59.24
72587;BME280;60621;49.576;11.024;2023-05-29T02:41:31;98433.19;;;13.48;58.54
72587;BME280;60621;49.576;11.024;2023-05-29T02:42:33;98433.06;;;13.30;58.73
72587;BME280;60621;49.576;11.024;2023-05-29T02:43:35;98428.53;;;13.31;59.00
72587;BME280;60621;49.576;11.024;2023-05-29T02:44:36;98434.34;;;13.54;57.95
72587;BME280;60621;49.576;11.024;2023-05-29T02:45:38;98431.63;;;13.47;57.59
72587;BME280;60621;49.576;11.024;2023-05-29T02:46:39;98423.63;;;13.37;58.14
72587;BME280;60621;49.576;11.024;2023-05-29T02:47:41;98434.38;;;13.58;57.74
72587;BME280;60621;49.576;11.024;2023-05-29T02:48:43;98424.94;;;13.71;57.36
72587;BME280;60621;49.576;11.024;2023-05-29T02:49:44;98431.00;;;13.72;57.20
72587;BME280;60621;49.576;11.024;2023-05-29T02:50:46;98433.72;;;13.86;56.81
72587;BME280;60621;49.576;11.024;2023-05-29T02:51:47;98425.44;;;13.91;56.35
72587;BME280;60621;49.576;11.024;2023-05-29T02:52:49;98431.81;;;13.79;56.32
72587;BME280;60621;49.576;11.024;2023-05-29T02:53:50;98436.38;;;13.86;56.60
72587;BME280;60621;49.576;11.024;2023-05-29T02:54:52;98428.84;;;13.95;56.44
72587;BME280;60621;49.576;11.024;2023-05-29T02:55:55;98430.75;;;13.95;55.60
72587;BME280;60621;49.576;11.024;2023-05-29T02:56:56;98442.03;;;13.77;56.23
72587;BME280;60621;49.576;11.024;2023-05-29T02:57:58;98440.19;;;13.81;56.31
72587;BME280;60621;49.576;11.024;2023-05-29T02:59:01;98436.75;;;13.84;56.47
72587;BME280;60621;49.576;11.024;2023-05-29T03:00:03;98439.03;;;13.86;56.50
72587;BME280;60621;49.576;11.024;2023-05-29T03:01:09;98442.06;;;13.84;56.59
72587;BME280;60621;49.576;11.024;2023-05-29T03:02:11;98437.03;;;13.62;56.39
72587;BME280;60621;49.576;11.024;2023-05-29T03:03:12;98443.50;;;13.68;57.06
72587;BME280;60621;49.576;11.024;2023-05-29T03:04:14;98443.91;;;13.73;56.65
72587;BME280;60621;49.576;11.024;2023-05-29T03:05:16;98435.19;;;13.73;56.65
72587;BME280;60621;49.576;11.024;2023-05-29T03:06:18;98438.47;;;13.52;56.76
72587;BME280;60621;49.576;11.024;2023-05-29T03:07:20;98439.31;;;13.63;56.73
72587;BME280;60621;49.576;11.024;2023-05-29T03:08:22;98442.03;;;13.74;56.46
72587;BME280;60621;49.576;11.024;2023-05-29T03:09:23;98442.03;;;13.81;55.98
72587;BME280;60621;49.576;11.024;2023-05-29T03:10:25;98442.44;;;13.83;55.90
72587;BME280;60621;49.576;11.024;2023-05-29T03:11:26;98442.03;;;13.74;56.09
72587;BME280;60621;49.576;11.024;2023-05-29T03:12:30;98442.03;;;13.81;56.09
72587;BME280;60621;49.576;11.024;2023-05-29T03:13:32;98447.34;;;13.77;55.58
72587;BME280;60621;49.576;11.024;2023-05-29T03:14:35;98445.03;;;13.69;56.41
72587;BME280;60621;49.576;11.024;2023-05-29T03:15:38;98444.63;;;13.67;56.22
72587;BME280;60621;49.576;11.024;2023-05-29T03:16:39;98445.72;;;13.58;56.69
72587;BME280;60621;49.576;11.024;2023-05-29T03:17:41;98445.97;;;13.36;56.89
72587;BME280;60621;49.576;11.024;2023-05-29T03:18:43;98436.06;;;13.29;57.29
72587;BME280;60621;49.576;11.024;2023-05-29T03:19:45;98440.53;;;13.21;57.64
72587;BME280;60621;49.576;11.024;2023-05-29T03:20:47;98432.81;;;13.02;58.09
72587;BME280;60621;49.576;11.024;2023-05-29T03:21:49;98431.19;;;12.90;58.18
72587;BME280;60621;49.576;11.024;2023-05-29T03:22:51;98437.88;;;12.73;58.69
72587;BME280;60621;49.576;11.024;2023-05-29T03:23:53;98436.75;;;12.74;58.81
72587;BME280;60621;49.576;11.024;2023-05-29T03:24:55;98437.41;;;12.64;59.14
72587;BME280;60621;49.576;11.024;2023-05-29T03:25:56;98434.97;;;12.48;59.51
72587;BME280;60621;49.576;11.024;2023-05-29T03:26:58;98437.13;;;12.36;60.02
72587;BME280;60621;49.576;11.024;2023-05-29T03:27:59;98432.06;;;12.23;60.81
72587;BME280;60621;49.576;11.024;2023-05-29T03:29:01;98440.69;;;12.50;60.60
72587;BME280;60621;49.576;11.024;2023-05-29T03:30:03;98428.78;;;12.71;59.74
72587;BME280;60621;49.576;11.024;2023-05-29T03:31:04;98440.22;;;12.82;59.33
72587;BME280;60621;49.576;11.024;2023-05-29T03:32:06;98440.81;;;13.05;58.72
72587;BME280;60621;49.576;11.024;2023-05-29T03:33:08;98439.78;;;13.21;57.92
72587;BME280;60621;49.576;11.024;2023-05-29T03:34:09;98436.03;;;13.22;57.90
72587;BME280;60621;49.576;11.024;2023-05-29T03:35:11;98440.97;;;13.27;57.79
72587;BME280;60621;49.576;11.024;2023-05-29T03:36:12;98438.03;;;13.43;57.44
72587;BME280;60621;49.576;11.024;2023-05-29T03:37:14;98444.88;;;13.47;57.31
72587;BME280;60621;49.576;11.024;2023-05-29T03:38:15;98444.00;;;13.25;57.58
72587;BME280;60621;49.576;11.024;2023-05-29T03:39:17;98441.13;;;13.00;58.39
72587;BME280;60621;49.576;11.024;2023-05-29T03:40:18;98437.94;;;12.80;59.05
72587;BME280;60621;49.576;11.024;2023-05-29T03:41:20;98435.09;;;12.59;60.07
72587;BME280;60621;49.576;11.024;2023-05-29T03:42:21;98443.69;;;12.49;60.68
72587;BME280;60621;49.576;11.024;2023-05-29T03:43:23;98442.00;;;12.30;60.62
72587;BME280;60621;49.576;11.024;2023-05-29T03:44:25;98435.41;;;12.17;61.47
72587;BME280;60621;49.576;11.024;2023-05-29T03:45:26;98435.09;;;12.22;61.82
72587;BME280;60621;49.576;11.024;2023-05-29T03:46:28;98440.81;;;12.27;60.82
72587;BME280;60621;49.576;11.024;2023-05-29T03:47:29;98435.75;;;12.15;61.51
72587;BME280;60621;49.576;11.024;2023-05-29T03:48:31;98447.00;;;12.42;61.01
72587;BME280;60621;49.576;11.024;2023-05-29T03:49:33;98450.00;;;12.37;60.97
72587;BME280;60621;49.576;11.024;2023-05-29T03:50:34;98443.75;;;12.19;61.04
72587;BME280;60621;49.576;11.024;2023-05-29T03:51:35;98445.81;;;12.02;61.75
72587;BME280;60621;49.576;11.024;2023-05-29T03:52:37;98452.19;;;11.98;62.22
72587;BME280;60621;49.576;11.024;2023-05-29T03:53:39;98451.00;;;11.92;62.33
72587;BME280;60621;49.576;11.024;2023-05-29T03:54:40;98451.75;;;11.92;62.46
72587;BME280;60621;49.576;11.024;2023-05-29T03:55:42;98446.84;;;11.94;62.39
72587;BME280;60621;49.576;11.024;2023-05-29T03:56:44;98451.94;;;12.07;62.20
72587;BME280;60621;49.576;11.024;2023-05-29T03:57:45;98454.44;;;12.29;61.29
72587;BME280;60621;49.576;11.024;2023-05-29T03:58:47;98454.81;;;12.28;60.74
72587;BME280;60621;49.576;11.024;2023-05-29T03:59:48;98456.91;;;12.15;61.15
72587;BME280;60621;49.576;11.024;2023-05-29T04:00:50;98456.75;;;12.01;61.36
72587;BME280;60621;49.576;11.024;2023-05-29T04:01:51;98451.78;;;11.96;62.38
72587;BME280;60621;49.576;11.024;2023-05-29T04:02:55;98451.31;;;11.90;62.26
72587;BME280;60621;49.576;11.024;2023-05-29T04:03:57;98458.72;;;11.81;62.39
72587;BME280;60621;49.576;11.024;2023-05-29T04:04:59;98456.06;;;11.77;62.42
72587;BME280;60621;49.576;11.024;2023-05-29T04:06:01;98451.13;;;11.76;62.57
72587;BME280;60621;49.576;11.024;2023-05-29T04:07:03;98457.16;;;11.76;62.52
72587;BME280;60621;49.576;11.024;2023-05-29T04:08:04;98451.38;;;11.94;62.57
72587;BME280;60621;49.576;11.024;2023-05-29T04:09:16;98458.91;;;12.22;61.89
72587;BME280;60621;49.576;11.024;2023-05-29T04:10:21;98469.34;;;12.45;61.12
72587;BME280;60621;49.576;11.024;2023-05-29T04:11:22;98469.88;;;12.61;60.50
72587;BME280;60621;49.576;11.024;2023-05-29T04:12:24;98467.81;;;12.81;59.79
72587;BME280;60621;49.576;11.024;2023-05-29T04:13:26;98474.66;;;12.82;59.68
72587;BME280;60621;49.576;11.024;2023-05-29T04:14:27;98482.13;;;12.76;59.85
72587;BME280;60621;49.576;11.024;2023-05-29T04:15:29;98484.09;;;12.83;59.71
72587;BME280;60621;49.576;11.024;2023-05-29T04:16:31;98474.38;;;12.94;59.41
72587;BME280;60621;49.576;11.024;2023-05-29T04:17:33;98481.81;;;12.81;59.30
72587;BME280;60621;49.576;11.024;2023-05-29T04:18:34;98484.75;;;12.73;59.89
72587;BME280;60621;49.576;11.024;2023-05-29T04:19:36;98486.19;;;12.67;59.99
72587;BME280;60621;49.576;11.024;2023-05-29T04:20:37;98486.81;;;12.53;60.64
72587;BME280;60621;49.576;11.024;2023-05-29T04:21:39;98484.63;;;12.59;60.75
72587;BME280;60621;49.576;11.024;2023-05-29T04:22:41;98487.03;;;12.74;60.52
72587;BME280;60621;49.576;11.024;2023-05-29T04:23:42;98488.50;;;12.68;60.67
72587;BME280;60621;49.576;11.024;2023-05-29T04:24:44;98496.25;;;12.88;60.76
72587;BME280;60621;49.576;11.024;2023-05-29T04:25:46;98485.84;;;13.09;59.99
72587;BME280;60621;49.576;11.024;2023-05-29T04:26:47;98491.97;;;13.17;59.65
72587;BME280;60621;49.576;11.024;2023-05-29T04:27:49;98494.66;;;13.20;59.64
72587;BME280;60621;49.576;11.024;2023-05-29T04:28:52;98501.41;;;13.18;59.71
72587;BME280;60621;49.576;11.024;2023-05-29T04:29:58;98497.38;;;13.27;59.71
72587;BME280;60621;49.576;11.024;2023-05-29T04:31:00;98504.22;;;13.32;59.58
72587;BME280;60621;49.576;11.024;2023-05-29T04:32:02;98502.72;;;13.35;59.55
72587;BME280;60621;49.576;11.024;2023-05-29T04:33:04;98504.53;;;13.23;59.43
72587;BME280;60621;49.576;11.024;2023-05-29T04:34:06;98501.47;;;13.21;59.42
72587;BME280;60621;49.576;11.024;2023-05-29T04:35:09;98503.47;;;13.31;59.72
72587;BME280;60621;49.576;11.024;2023-05-29T04:36:10;98496.31;;;13.36;59.39
72587;BME280;60621;49.576;11.024;2023-05-29T04:37:12;98508.53;;;13.51;59.49
72587;BME280;60621;49.576;11.024;2023-05-29T04:38:14;98508.22;;;13.60;59.39
72587;BME280;60621;49.576;11.024;2023-05-29T04:39:17;98516.56;;;13.65;59.16
72587;BME280;60621;49.576;11.024;2023-05-29T04:40:19;98512.47;;;13.75;58.77
72587;BME280;60621;49.576;11.024;2023-05-29T04:41:21;98513.25;;;13.79;59.00
72587;BME280;60621;49.576;11.024;2023-05-29T04:42:24;98520.47;;;13.82;58.58
72587;BME280;60621;49.576;11.024;2023-05-29T04:43:26;98517.03;;;13.78;58.74
72587;BME280;60621;49.576;11.024;2023-05-29T04:44:28;98522.22;;;13.60;59.17
72587;BME280;60621;49.576;11.024;2023-05-29T04:45:32;98509.94;;;13.38;59.77
72587;BME280;60621;49.576;11.024;2023-05-29T04:46:34;98512.06;;;13.21;60.23
72587;BME280;60621;49.576;11.024;2023-05-29T04:47:37;98519.16;;;13.14;60.69
72587;BME280;60621;49.576;11.024;2023-05-29T04:48:44;98523.78;;;13.20;60.87
72587;BME280;60621;49.576;11.024;2023-05-29T04:49:46;98521.13;;;13.20;61.04
72587;BME280;60621;49.576;11.024;2023-05-29T04:50:51;98529.22;;;13.35;60.78
72587;BME280;60621;49.576;11.024;2023-05-29T04:51:53;98519.88;;;13.51;60.64
72587;BME280;60621;49.576;11.024;2023-05-29T04:52:54;98529.03;;;13.61;60.51
72587;BME280;60621;49.576;11.024;2023-05-29T04:53:56;98525.69;;;13.68;60.21
72587;BME280;60621;49.576;11.024;2023-05-29T04:54:58;98530.53;;;13.62;60.79
72587;BME280;60621;49.576;11.024;2023-05-29T04:55:59;98525.19;;;13.51;60.48
72587;BME280;60621;49.576;11.024;2023-05-29T04:57:02;98523.28;;;13.52;60.38
72587;BME280;60621;49.576;11.024;2023-05-29T04:58:05;98525.66;;;13.64;60.40
72587;BME280;60621;49.576;11.024;2023-05-29T04:59:06;98527.72;;;13.92;59.29
72587;BME280;60621;49.576;11.024;2023-05-29T05:00:08;98533.06;;;13.96;59.25
72587;BME280;60621;49.576;11.024;2023-05-29T05:01:15;98539.09;;;13.93;60.47
72587;BME280;60621;49.576;11.024;2023-05-29T05:02:17;98539.03;;;13.86;60.83
72587;BME280;60621;49.576;11.024;2023-05-29T05:03:18;98535.31;;;13.94;60.63
72587;BME280;60621;49.576;11.024;2023-05-29T05:04:20;98536.53;;;14.11;60.39
72587;BME280;60621;49.576;11.024;2023-05-29T05:05:22;98536.22;;;14.23;60.10
72587;BME280;60621;49.576;11.024;2023-05-29T05:06:23;98540.72;;;14.12;59.88
72587;BME280;60621;49.576;11.024;2023-05-29T05:07:26;98542.53;;;13.97;60.64
72587;BME280;60621;49.576;11.024;2023-05-29T05:08:28;98546.78;;;14.12;60.70
72587;BME280;60621;49.576;11.024;2023-05-29T05:09:30;98543.00;;;14.17;60.26
72587;BME280;60621;49.576;11.024;2023-05-29T05:10:33;98550.53;;;14.07;60.50
72587;BME280;60621;49.576;11.024;2023-05-29T05:11:34;98548.66;;;14.12;60.66
72587;BME280;60621;49.576;11.024;2023-05-29T05:12:36;98541.84;;;14.11;59.99
72587;BME280;60621;49.576;11.024;2023-05-29T05:13:38;98542.56;;;14.04;59.71
72587;BME280;60621;49.576;11.024;2023-05-29T05:14:39;98545.63;;;14.13;60.51
72587;BME280;60621;49.576;11.024;2023-05-29T05:15:41;98549.44;;;14.19;60.27
72587;BME280;60621;49.576;11.024;2023-05-29T05:16:42;98555.16;;;14.21;59.81
72587;BME280;60621;49.576;11.024;2023-05-29T05:17:44;98552.16;;;14.26;60.09
72587;BME280;60621;49.576;11.024;2023-05-29T05:18:46;98552.56;;;14.32;60.26
72587;BME280;60621;49.576;11.024;2023-05-29T05:19:48;98556.84;;;14.62;57.76
72587;BME280;60621;49.576;11.024;2023-05-29T05:20:56;98553.91;;;14.77;58.69
72587;BME280;60621;49.576;11.024;2023-05-29T05:21:58;98558.84;;;14.90;56.85
72587;BME280;60621;49.576;11.024;2023-05-29T05:22:59;98563.03;;;14.98;56.56
72587;BME280;60621;49.576;11.024;2023-05-29T05:24:01;98561.53;;;15.00;57.48
72587;BME280;60621;49.576;11.024;2023-05-29T05:25:03;98555.84;;;15.02;57.46
72587;BME280;60621;49.576;11.024;2023-05-29T05:26:05;98558.13;;;15.10;56.76
72587;BME280;60621;49.576;11.024;2023-05-29T05:27:13;98562.69;;;15.10;56.86
72587;BME280;60621;49.576;11.024;2023-05-29T05:28:15;98561.88;;;14.95;57.08
72587;BME280;60621;49.576;11.024;2023-05-29T05:29:17;98563.41;;;14.93;57.66
72587;BME280;60621;49.576;11.024;2023-05-29T05:30:18;98560.38;;;14.87;57.66
72587;BME280;60621;49.576;11.024;2023-05-29T05:31:21;98566.81;;;14.90;57.66
72587;BME280;60621;49.576;11.024;2023-05-29T05:32:23;98569.47;;;14.93;57.77